Gainesville, FL

Saat: 12:35 PM EST Tarix: 03 Dekabr 2016 (GMT -0500)
The Duckpond | | Change Station

Elev 124 ft 29.66 °N, 82.32 °W | Updated 28 seconds ago

Clear
A
72.0 ° F
Feels Like 77 ° F
N
0.0
K Də K from Cənub
Gusts 8.0 mph

Bug
High -- | Low -- ° F
--% Chance of Precip.
Yesterday
High -- | Low -- ° F
Precip. -- in
Təzyiq 30.19 in
G 10.0 mil
Buludlar A
Hərarət 77 ° F
50 ° F
Nəmin faizi 46%
Rainfall 0.00 in
Snow Depth Not available.
7:08 AM 5:29 PM
Waxing Crescent, 16% visible
METAR KGNV 031653Z 09008KT 10SM CLR 21/08 A3019 RMK AO2 SLP223 T02060083
Təzyiq 30.19 in
G 10.0 mil
Buludlar A
Hərarət 77 ° F
50 ° F
Nəmin faizi 46%
Rainfall 0.00 in
Snow Depth Not available.
7:08 AM 5:29 PM
Waxing Crescent, 16% visible
METAR KGNV 031653Z 09008KT 10SM CLR 21/08 A3019 RMK AO2 SLP223 T02060083

10-Day Weather Forecast

Almanac

Astronomy

Dec. 03, 2016 Rise Set
Actual Time
Civil Twilight
Nautical Twilight
Astronomical Twilight
Ay
Length Of Visible Light
Length of Day
Tomorrow will be .
, % of the Moon is Illuminated

Today's Extremes

State Highs State Lows

Community

WunderPhotos

Upload Photos

1,955,452 photos uploaded!

WunderBlog® & News

Nearby

Air Quality

  Air Quality AQ Index Pollutant
Not available.

Snow Depth

Station Depth Elevation

Earthquake Activity

Distance Mag. Time & Date
Minimum magnitude displayed is 2.5.

Coastal Water Temperatures

Yer Hərarət

Stations

Nearby Weather Stations

Station Location Temp Əsinti Nəmin faizi K Precip. Elev Yeniləndi Type
                   

Watches & Warnings

There are currently no watches in effect.